Time;durP1;ratioP1;P1;durP2;ratioP2;P2;SDS_P1;SDS_P2;PMS_P1;PMS_P2;Temp;Humidity;BMP_temperature;BMP_pressure;BME280_temperature;BME280_humidity;BME280_pressure;Samples;Min_cycle;Max_cycle;Signal;HPM_P1;HPM_P2
2023/01/18 00:00:36;;;;;;;4.07;2.00;;;-0.10;99.90;;;;;;4975119;28;20502;-63
2023/01/18 00:03:03;;;;;;;7.95;2.95;;;-0.10;99.90;;;;;;4990446;28;20065;-63
2023/01/18 00:05:29;;;;;;;7.15;2.92;;;-0.10;99.90;;;;;;4989215;28;20115;-63
2023/01/18 00:07:55;;;;;;;7.05;1.88;;;-0.10;99.90;;;;;;4971448;28;20089;-63
2023/01/18 00:10:22;;;;;;;9.00;2.15;;;-0.10;99.90;;;;;;4976784;28;20506;-63
2023/01/18 00:12:49;;;;;;;4.03;2.17;;;-0.10;99.90;;;;;;4989107;28;20046;-63
2023/01/18 00:15:15;;;;;;;4.93;2.63;;;-0.10;99.90;;;;;;4972055;28;20050;-63
2023/01/18 00:17:50;;;;;;;2.22;1.88;;;-0.20;99.90;;;;;;4989214;28;20030;-63
2023/01/18 00:20:18;;;;;;;2.25;2.05;;;-0.20;99.90;;;;;;4990015;28;20576;-63
2023/01/18 00:22:45;;;;;;;8.52;2.20;;;-0.20;99.90;;;;;;4989550;28;20057;-63
2023/01/18 00:25:11;;;;;;;2.35;1.85;;;-0.20;99.90;;;;;;4988866;28;20113;-63
2023/01/18 00:27:37;;;;;;;4.05;2.10;;;-0.20;99.90;;;;;;4970646;28;20050;-64
2023/01/18 00:30:07;;;;;;;8.38;2.25;;;-0.20;99.90;;;;;;4989767;28;20053;-63
2023/01/18 00:32:33;;;;;;;4.47;1.73;;;-0.20;99.90;;;;;;4988396;28;20144;-63
2023/01/18 00:35:03;;;;;;;8.68;2.05;;;-0.20;99.90;;;;;;4989071;28;20068;-63
2023/01/18 00:37:31;;;;;;;5.03;1.90;;;-0.20;99.90;;;;;;4989422;28;20054;-63
2023/01/18 00:39:56;;;;;;;2.05;1.52;;;-0.20;99.90;;;;;;4972032;28;20089;-63
2023/01/18 00:45:07;;;;;;;4.63;2.17;;;-0.30;99.90;;;;;;4988413;28;20409;-63
2023/01/18 00:47:33;;;;;;;6.15;2.17;;;-0.30;99.90;;;;;;4989383;28;20038;-64
2023/01/18 00:50:00;;;;;;;8.50;2.35;;;-0.20;99.90;;;;;;4988869;28;20080;-63
2023/01/18 00:52:26;;;;;;;5.75;2.17;;;-0.30;99.90;;;;;;4988794;28;20046;-63
2023/01/18 00:54:51;;;;;;;5.13;2.53;;;-0.30;99.90;;;;;;4987604;28;20053;-63
2023/01/18 00:57:17;;;;;;;5.70;2.42;;;-0.30;99.90;;;;;;4988201;28;20046;-63
2023/01/18 00:59:43;;;;;;;8.65;2.80;;;-0.30;99.90;;;;;;4981176;28;20558;-63
2023/01/18 01:02:09;;;;;;;4.57;2.30;;;-0.30;99.90;;;;;;4986247;28;20080;-63
2023/01/18 01:07:19;;;;;;;4.82;2.10;;;-0.30;99.90;;;;;;4986322;28;20053;-64
2023/01/18 01:09:45;;;;;;;5.13;2.33;;;-0.30;99.90;;;;;;4954736;28;20050;-63
2023/01/18 01:26:12;;;;;;;4.20;2.50;;;-0.30;99.90;;;;;;4989436;28;20047;-63
2023/01/18 01:28:48;;;;;;;9.32;2.40;;;-0.30;99.90;;;;;;4987183;28;20038;-64
2023/01/18 01:31:15;;;;;;;5.97;2.17;;;-0.30;99.90;;;;;;4988723;28;20050;-63
2023/01/18 01:33:43;;;;;;;5.03;2.05;;;-0.30;99.90;;;;;;4967376;28;20050;-64
2023/01/18 01:36:13;;;;;;;4.28;2.05;;;-0.30;99.90;;;;;;4979457;28;20378;-63
2023/01/18 01:38:40;;;;;;;4.65;2.17;;;-0.30;99.90;;;;;;4988414;28;20480;-63
2023/01/18 01:41:28;;;;;;;4.70;2.60;;;-0.40;99.90;;;;;;4966869;28;20051;-63
2023/01/18 01:44:19;;;;;;;3.03;2.00;;;-0.40;99.90;;;;;;4975305;28;20054;-63
2023/01/18 01:46:48;;;;;;;7.32;2.45;;;-0.40;99.90;;;;;;4987551;28;20050;-63
2023/01/18 01:49:31;;;;;;;5.65;2.92;;;-0.40;99.90;;;;;;4987768;28;20038;-63
2023/01/18 01:52:05;;;;;;;9.18;2.28;;;-0.50;99.90;;;;;;4988137;28;20137;-64
2023/01/18 01:54:46;;;;;;;5.07;2.70;;;-0.50;99.90;;;;;;4987934;28;20050;-63
2023/01/18 01:57:25;;;;;;;8.10;3.05;;;-0.50;99.90;;;;;;4970467;28;20121;-63
2023/01/18 02:00:00;;;;;;;3.80;2.65;;;-0.50;99.90;;;;;;4988170;28;20445;-64
2023/01/18 02:02:28;;;;;;;7.53;2.97;;;-0.50;99.90;;;;;;4987117;28;20570;-63
2023/01/18 02:04:56;;;;;;;6.75;2.78;;;-0.50;99.90;;;;;;4987840;28;20130;-63
2023/01/18 02:07:25;;;;;;;10.02;2.78;;;-0.50;99.90;;;;;;4969806;28;20181;-63
2023/01/18 02:09:51;;;;;;;4.35;2.20;;;-0.50;99.90;;;;;;4970054;28;20505;-63
2023/01/18 02:12:18;;;;;;;7.07;3.15;;;-0.50;99.90;;;;;;4987349;28;20408;-63
2023/01/18 02:14:43;;;;;;;8.00;3.25;;;-0.50;99.90;;;;;;4987193;28;20093;-63
2023/01/18 02:17:35;;;;;;;4.90;3.00;;;-0.60;99.90;;;;;;4987667;28;20421;-63
2023/01/18 02:20:18;;;;;;;3.58;2.92;;;-0.60;99.90;;;;;;4986760;28;20094;-63
2023/01/18 02:22:44;;;;;;;6.40;2.90;;;-0.60;99.90;;;;;;4969887;28;20050;-63
2023/01/18 02:25:32;;;;;;;5.97;2.83;;;-0.60;99.90;;;;;;4987476;28;20045;-63
2023/01/18 02:28:10;;;;;;;4.38;2.72;;;-0.70;99.90;;;;;;4986891;28;20456;-64
2023/01/18 02:30:51;;;;;;;12.32;3.20;;;-0.70;99.90;;;;;;4987334;28;20092;-64
2023/01/18 02:33:20;;;;;;;6.28;2.63;;;-0.70;99.90;;;;;;4986457;28;20444;-63
2023/01/18 02:35:52;;;;;;;3.65;2.67;;;-0.70;99.90;;;;;;4966706;28;20497;-64
2023/01/18 02:38:25;;;;;;;9.68;3.58;;;-0.70;99.90;;;;;;4986009;28;20050;-63
2023/01/18 02:41:04;;;;;;;6.57;2.90;;;-0.60;99.90;;;;;;4969111;28;20432;-63
2023/01/18 02:46:29;;;;;;;7.22;2.78;;;-0.60;99.90;;;;;;4986258;28;20054;-64
2023/01/18 02:48:57;;;;;;;10.90;3.35;;;-0.60;99.90;;;;;;4987070;28;20045;-63
2023/01/18 02:51:23;;;;;;;9.80;3.20;;;-0.60;99.90;;;;;;4968991;28;20042;-63
2023/01/18 02:53:49;;;;;;;6.43;3.40;;;-0.60;99.90;;;;;;4986475;28;20049;-64
2023/01/18 02:56:24;;;;;;;5.97;3.03;;;-0.60;99.90;;;;;;4987345;28;20038;-64
2023/01/18 02:59:03;;;;;;;3.55;3.25;;;-0.60;99.90;;;;;;4986234;28;20417;-64
2023/01/18 03:01:34;;;;;;;4.00;3.20;;;-0.60;99.90;;;;;;4987064;28;20053;-63
2023/01/18 03:04:55;;;;;;;11.00;3.58;;;-0.60;99.90;;;;;;4986218;28;20328;-63
2023/01/18 03:07:27;;;;;;;10.05;3.63;;;-0.60;99.90;;;;;;4935902;28;20086;-64
2023/01/18 03:09:54;;;;;;;7.50;3.17;;;-0.60;99.90;;;;;;4979774;28;20056;-64
2023/01/18 03:12:47;;;;;;;6.13;3.80;;;-0.60;99.90;;;;;;4970110;28;20510;-63
2023/01/18 03:15:19;;;;;;;8.23;3.47;;;-0.60;99.90;;;;;;4986880;28;20046;-63
2023/01/18 03:18:05;;;;;;;5.38;3.30;;;-0.50;99.90;;;;;;4985773;28;20181;-64
2023/01/18 03:20:38;;;;;;;3.97;3.15;;;-0.60;99.90;;;;;;4985614;28;20062;-63
2023/01/18 03:26:04;;;;;;;5.72;3.42;;;-0.60;99.90;;;;;;4986300;28;20058;-64
2023/01/18 03:34:43;;;;;;;13.25;3.47;;;-0.60;99.90;;;;;;4985951;28;20057;-64
2023/01/18 03:37:20;;;;;;;5.30;3.30;;;-0.70;99.90;;;;;;4952693;28;20054;-63
2023/01/18 03:39:54;;;;;;;5.82;3.50;;;-0.70;99.90;;;;;;4969304;28;20498;-64
2023/01/18 03:42:24;;;;;;;7.00;3.50;;;-0.70;99.90;;;;;;4967919;28;20042;-63
2023/01/18 03:45:05;;;;;;;9.27;3.90;;;-0.70;99.90;;;;;;4986809;28;20043;-64
2023/01/18 03:47:31;;;;;;;4.63;3.50;;;-0.70;99.90;;;;;;4986027;28;20446;-64
2023/01/18 03:49:57;;;;;;;10.30;4.22;;;-0.70;99.90;;;;;;4968052;28;20047;-63
2023/01/18 03:52:23;;;;;;;4.30;3.90;;;-0.70;99.90;;;;;;4986040;28;20046;-63
2023/01/18 03:55:06;;;;;;;10.40;4.40;;;-0.70;99.90;;;;;;4985995;28;20047;-64
2023/01/18 03:57:41;;;;;;;7.60;3.08;;;-0.70;99.90;;;;;;4986598;28;20050;-64
2023/01/18 04:00:09;;;;;;;6.45;3.60;;;-0.70;99.90;;;;;;4967205;28;20421;-63
2023/01/18 04:02:36;;;;;;;7.70;4.03;;;-0.70;99.90;;;;;;4986503;28;20046;-64
2023/01/18 04:05:03;;;;;;;4.00;3.55;;;-0.70;99.90;;;;;;4985680;28;20076;-63
2023/01/18 04:07:30;;;;;;;8.38;4.28;;;-0.70;99.90;;;;;;4985701;28;20596;-64
2023/01/18 04:09:57;;;;;;;4.97;3.58;;;-0.70;99.90;;;;;;4986032;28;20405;-63
2023/01/18 04:12:22;;;;;;;5.65;4.25;;;-0.80;99.90;;;;;;4975491;28;20050;-63
2023/01/18 04:14:48;;;;;;;6.55;3.95;;;-0.80;99.90;;;;;;4986447;28;20041;-64
2023/01/18 04:17:14;;;;;;;6.97;3.85;;;-0.80;99.90;;;;;;4985573;28;20054;-64
2023/01/18 04:19:40;;;;;;;9.27;4.70;;;-0.80;99.90;;;;;;4979061;28;20089;-64
2023/01/18 04:22:07;;;;;;;6.38;4.30;;;-0.90;99.90;;;;;;4981995;28;20512;-65
2023/01/18 04:24:33;;;;;;;8.38;4.18;;;-0.90;99.90;;;;;;4972054;28;20057;-63
2023/01/18 04:26:58;;;;;;;9.63;4.60;;;-0.90;99.90;;;;;;4967089;28;20050;-64
2023/01/18 04:29:24;;;;;;;4.55;3.50;;;-0.90;99.90;;;;;;4986118;28;20049;-63
2023/01/18 04:31:50;;;;;;;5.50;3.90;;;-0.80;99.90;;;;;;4990236;28;20115;-64
2023/01/18 04:34:16;;;;;;;5.22;3.88;;;-0.90;99.90;;;;;;4988531;28;20058;-64
2023/01/18 04:36:43;;;;;;;6.70;4.45;;;-0.90;99.90;;;;;;4972125;28;20096;-63
2023/01/18 04:39:11;;;;;;;13.15;4.68;;;-0.90;99.90;;;;;;4988782;28;20052;-63
2023/01/18 04:41:37;;;;;;;11.70;4.72;;;-0.90;99.90;;;;;;4989528;28;20730;-64
2023/01/18 04:44:03;;;;;;;11.73;4.82;;;-0.80;99.90;;;;;;4988296;28;20042;-64
2023/01/18 04:46:29;;;;;;;10.27;4.97;;;-0.80;99.90;;;;;;4988680;28;20038;-64
2023/01/18 04:48:55;;;;;;;5.68;4.18;;;-0.90;99.90;;;;;;4968858;28;20047;-64
2023/01/18 04:51:22;;;;;;;9.85;4.63;;;-0.80;99.90;;;;;;4965477;28;20047;-64
2023/01/18 04:53:49;;;;;;;6.70;4.00;;;-0.80;99.90;;;;;;4989006;28;20543;-63
2023/01/18 04:56:16;;;;;;;9.30;4.97;;;-0.80;99.90;;;;;;4986827;28;20042;-64
2023/01/18 04:58:42;;;;;;;6.80;3.90;;;-0.80;99.90;;;;;;4988939;28;20042;-63
2023/01/18 05:01:11;;;;;;;10.10;6.47;;;-0.80;99.90;;;;;;4988459;28;20049;-64
2023/01/18 05:03:38;;;;;;;13.82;4.97;;;-0.80;99.90;;;;;;4988716;28;20093;-64
2023/01/18 05:06:06;;;;;;;8.98;4.45;;;-0.80;99.90;;;;;;4988315;28;20449;-63
2023/01/18 05:08:32;;;;;;;11.35;4.72;;;-0.90;99.90;;;;;;4972004;28;20054;-64
2023/01/18 05:11:06;;;;;;;5.72;4.45;;;-0.90;99.90;;;;;;4989234;28;20121;-64
2023/01/18 05:13:33;;;;;;;8.90;4.75;;;-0.90;99.90;;;;;;4988072;28;20068;-64
2023/01/18 05:16:00;;;;;;;5.88;4.35;;;-1.00;99.90;;;;;;4971532;28;20049;-63
2023/01/18 05:18:26;;;;;;;12.60;4.75;;;-1.10;99.90;;;;;;4988111;28;20461;-63
2023/01/18 05:20:51;;;;;;;7.90;4.18;;;-1.10;99.90;;;;;;4970408;28;20112;-64
2023/01/18 05:23:17;;;;;;;6.95;4.18;;;-1.10;99.90;;;;;;4960871;28;20058;-64
2023/01/18 05:25:43;;;;;;;5.50;3.97;;;-1.10;99.90;;;;;;4981669;28;20101;-64
2023/01/18 05:28:09;;;;;;;8.07;4.85;;;-1.10;99.90;;;;;;4970433;28;20056;-64
2023/01/18 05:30:40;;;;;;;8.75;4.18;;;-1.20;99.90;;;;;;4987806;28;20045;-64
2023/01/18 05:33:08;;;;;;;15.77;6.03;;;-1.20;99.90;;;;;;4987954;28;20061;-64
2023/01/18 05:35:34;;;;;;;9.05;5.72;;;-1.20;99.90;;;;;;4988137;28;20394;-64
2023/01/18 05:38:00;;;;;;;15.07;5.20;;;-1.20;99.90;;;;;;4988795;28;20070;-64
2023/01/18 05:40:26;;;;;;;7.68;5.32;;;-1.10;99.90;;;;;;4987143;28;20078;-63
2023/01/18 05:42:52;;;;;;;8.50;5.93;;;-1.10;99.90;;;;;;4986633;28;21821;-64
2023/01/18 05:45:19;;;;;;;8.45;5.35;;;-1.10;99.90;;;;;;4987774;28;20078;-64
2023/01/18 05:47:45;;;;;;;12.77;6.25;;;-1.10;99.90;;;;;;4970264;28;20058;-64
2023/01/18 05:50:11;;;;;;;10.60;7.00;;;-1.10;99.90;;;;;;4967134;28;20043;-64
2023/01/18 05:52:37;;;;;;;7.22;5.40;;;-1.10;99.90;;;;;;4958094;28;20055;-64
2023/01/18 05:55:04;;;;;;;20.33;6.35;;;-1.10;99.90;;;;;;4985472;28;20510;-64
2023/01/18 05:57:30;;;;;;;14.05;6.70;;;-1.10;99.90;;;;;;4975251;28;20549;-64
2023/01/18 05:59:56;;;;;;;10.82;6.18;;;-1.10;99.90;;;;;;4987712;28;20048;-64
2023/01/18 06:02:23;;;;;;;16.00;6.57;;;-1.10;99.90;;;;;;4987416;28;20050;-64
2023/01/18 06:04:49;;;;;;;9.43;6.03;;;-1.20;99.90;;;;;;4987394;28;21147;-64
2023/01/18 06:07:15;;;;;;;12.20;6.72;;;-1.20;99.90;;;;;;4987953;28;20588;-64
2023/01/18 06:09:41;;;;;;;9.10;6.03;;;-1.20;99.90;;;;;;4987184;28;20050;-64
2023/01/18 06:12:08;;;;;;;15.77;7.15;;;-1.20;99.90;;;;;;4987888;28;20520;-64
2023/01/18 06:14:34;;;;;;;22.58;6.90;;;-1.20;99.90;;;;;;4951833;28;20129;-64
2023/01/18 06:17:00;;;;;;;14.82;5.88;;;-1.20;99.90;;;;;;4987640;28;20142;-64
2023/01/18 06:19:27;;;;;;;10.32;6.30;;;-1.20;99.90;;;;;;4985223;28;20117;-64
2023/01/18 06:21:53;;;;;;;10.90;5.93;;;-1.10;99.90;;;;;;4985815;28;20050;-64
2023/01/18 06:24:19;;;;;;;10.15;5.95;;;-1.10;99.90;;;;;;4987244;28;20053;-63
2023/01/18 06:26:45;;;;;;;9.07;5.70;;;-1.10;99.90;;;;;;4986858;28;20444;-64
2023/01/18 06:29:11;;;;;;;16.02;6.70;;;-1.10;99.90;;;;;;4987554;28;20134;-64
2023/01/18 06:31:37;;;;;;;14.07;6.00;;;-1.20;99.90;;;;;;4985924;28;20093;-64
2023/01/18 06:34:08;;;;;;;9.68;5.68;;;-1.20;99.90;;;;;;4969368;28;20046;-64
2023/01/18 06:36:35;;;;;;;13.13;5.45;;;-1.20;99.90;;;;;;4968727;28;20052;-64
2023/01/18 06:39:01;;;;;;;11.55;5.40;;;-1.20;99.90;;;;;;4987375;28;20456;-64
2023/01/18 06:41:28;;;;;;;7.63;5.90;;;-1.20;99.90;;;;;;4986662;28;20041;-64
2023/01/18 06:43:54;;;;;;;13.65;6.38;;;-1.20;99.90;;;;;;4986924;28;20492;-64
2023/01/18 06:46:20;;;;;;;10.00;5.97;;;-1.10;99.90;;;;;;4969464;28;20059;-64
2023/01/18 06:48:47;;;;;;;17.02;6.13;;;-1.10;99.90;;;;;;4987013;28;20050;-64
2023/01/18 06:51:12;;;;;;;9.57;5.97;;;-1.10;99.90;;;;;;4987376;28;20076;-64
2023/01/18 06:53:38;;;;;;;13.10;6.85;;;-1.10;99.90;;;;;;4985396;28;20501;-64
2023/01/18 06:56:09;;;;;;;12.25;6.25;;;-1.10;99.90;;;;;;4969603;28;20054;-64
2023/01/18 06:58:35;;;;;;;12.02;5.43;;;-1.20;99.90;;;;;;4986383;28;20042;-64
2023/01/18 07:01:01;;;;;;;19.63;6.93;;;-1.10;99.90;;;;;;4967329;28;20086;-64
2023/01/18 07:03:28;;;;;;;10.75;5.45;;;-1.10;99.90;;;;;;4985795;28;20082;-64
2023/01/18 07:05:55;;;;;;;15.13;6.20;;;-1.10;99.90;;;;;;4984026;28;21129;-64
2023/01/18 07:08:21;;;;;;;14.23;5.88;;;-1.10;99.90;;;;;;4975171;28;20039;-64
2023/01/18 07:10:51;;;;;;;10.32;5.65;;;-1.00;99.90;;;;;;4985384;28;20045;-64
2023/01/18 07:13:17;;;;;;;11.05;5.18;;;-0.90;99.90;;;;;;4987184;28;20050;-65
2023/01/18 07:15:43;;;;;;;10.73;5.68;;;-0.90;99.90;;;;;;4985725;28;20120;-64
2023/01/18 07:18:09;;;;;;;13.77;6.25;;;-0.80;99.90;;;;;;4969046;28;20042;-64
2023/01/18 07:20:35;;;;;;;13.90;5.20;;;-0.80;99.90;;;;;;4986291;28;20499;-64
2023/01/18 07:23:03;;;;;;;12.90;5.47;;;-0.70;99.90;;;;;;4985981;28;20050;-64
2023/01/18 07:25:29;;;;;;;4.05;3.53;;;-0.70;99.90;;;;;;4986063;28;20039;-64
2023/01/18 07:27:58;;;;;;;10.50;4.90;;;-0.60;99.90;;;;;;4985870;28;20401;-64
2023/01/18 07:30:24;;;;;;;8.63;4.30;;;-0.60;99.90;;;;;;4986729;28;20188;-65
2023/01/18 07:32:52;;;;;;;6.05;4.45;;;-0.50;99.90;;;;;;4966387;28;20406;-65
2023/01/18 07:35:21;;;;;;;7.72;2.63;;;-0.50;99.90;;;;;;4986155;28;20506;-65
2023/01/18 07:37:48;;;;;;;10.05;5.07;;;-0.40;99.90;;;;;;4968669;28;20062;-65
2023/01/18 07:40:14;;;;;;;11.68;4.55;;;-0.40;99.90;;;;;;4986157;28;20038;-65
2023/01/18 07:42:40;;;;;;;6.55;4.53;;;-0.40;99.90;;;;;;4968553;28;20514;-65
2023/01/18 07:45:07;;;;;;;9.38;4.20;;;-0.40;99.90;;;;;;4968081;28;20065;-65
2023/01/18 07:47:34;;;;;;;14.60;4.80;;;-0.30;99.90;;;;;;4986531;28;20065;-65
2023/01/18 07:50:00;;;;;;;18.60;5.97;;;-0.30;99.90;;;;;;4952372;28;20501;-65
2023/01/18 07:52:26;;;;;;;8.60;3.53;;;-0.30;99.90;;;;;;4985925;28;20054;-65
2023/01/18 07:54:52;;;;;;;12.93;4.90;;;-0.30;99.90;;;;;;4986027;28;20076;-65
2023/01/18 07:57:18;;;;;;;10.82;4.88;;;-0.30;99.90;;;;;;4985642;28;20118;-65
2023/01/18 07:59:44;;;;;;;11.45;5.45;;;-0.30;99.90;;;;;;4986019;28;20496;-65
2023/01/18 08:02:12;;;;;;;11.20;5.15;;;-0.30;99.90;;;;;;4967737;28;20082;-65
2023/01/18 08:04:39;;;;;;;15.80;4.82;;;-0.30;99.90;;;;;;4989063;28;20378;-65
2023/01/18 08:07:05;;;;;;;10.90;5.13;;;-0.30;99.90;;;;;;4983440;28;20046;-65
2023/01/18 08:09:33;;;;;;;13.88;5.22;;;-0.30;99.90;;;;;;4978448;28;20682;-65
2023/01/18 08:12:00;;;;;;;11.55;5.20;;;-0.30;99.90;;;;;;4964149;28;20117;-65
2023/01/18 08:14:26;;;;;;;11.30;5.07;;;-0.40;99.90;;;;;;4972818;28;20848;-65
2023/01/18 08:16:51;;;;;;;10.25;5.75;;;-0.40;99.90;;;;;;4973208;28;20047;-66
2023/01/18 08:19:18;;;;;;;6.35;3.65;;;-0.40;99.90;;;;;;4978223;28;20050;-65
2023/01/18 08:21:46;;;;;;;16.75;5.72;;;-0.40;99.90;;;;;;4974986;28;20061;-66
2023/01/18 08:24:12;;;;;;;14.68;5.97;;;-0.40;99.90;;;;;;4972338;28;20055;-65
2023/01/18 08:26:39;;;;;;;12.95;4.32;;;-0.40;99.90;;;;;;4977279;28;20046;-66
2023/01/18 08:29:05;;;;;;;10.25;5.28;;;-0.40;99.90;;;;;;4967360;28;20038;-65
2023/01/18 08:31:31;;;;;;;10.35;5.68;;;-0.40;99.90;;;;;;4982545;28;20046;-66
2023/01/18 08:33:57;;;;;;;15.52;5.40;;;-0.40;99.90;;;;;;4967671;28;20409;-65
2023/01/18 08:36:24;;;;;;;10.55;5.80;;;-0.40;99.90;;;;;;4956922;28;20054;-66
2023/01/18 08:38:52;;;;;;;9.68;4.65;;;-0.40;99.90;;;;;;4977172;28;20053;-65
2023/01/18 08:41:19;;;;;;;7.75;4.93;;;-0.40;99.90;;;;;;4988544;28;20096;-65
2023/01/18 08:43:49;;;;;;;10.65;5.22;;;-0.40;99.90;;;;;;4989160;28;20505;-65
2023/01/18 08:46:15;;;;;;;17.58;5.05;;;-0.40;99.90;;;;;;4982863;28;20042;-66
2023/01/18 08:48:42;;;;;;;15.23;6.28;;;-0.30;99.90;;;;;;4969959;28;20407;-66
2023/01/18 08:51:08;;;;;;;9.30;4.88;;;-0.20;99.90;;;;;;4972582;28;20061;-66
2023/01/18 08:53:35;;;;;;;13.38;6.15;;;-0.20;99.90;;;;;;4968296;28;20078;-65
2023/01/18 08:56:05;;;;;;;12.93;6.57;;;-0.20;99.90;;;;;;4967933;28;20433;-66
2023/01/18 08:58:31;;;;;;;9.77;5.53;;;-0.20;99.90;;;;;;4971856;28;20050;-65
2023/01/18 09:00:58;;;;;;;11.50;5.68;;;-0.10;99.90;;;;;;4972395;28;20325;-65
2023/01/18 09:03:23;;;;;;;8.98;3.83;;;-0.10;99.90;;;;;;4955201;28;20074;-65
2023/01/18 09:05:49;;;;;;;14.98;6.25;;;0.00;99.90;;;;;;4969826;28;20144;-66
2023/01/18 09:08:16;;;;;;;12.57;5.30;;;0.00;99.90;;;;;;4969505;28;20043;-65
2023/01/18 09:10:43;;;;;;;9.77;4.90;;;0.10;99.90;;;;;;4987837;28;20108;-65
2023/01/18 09:13:09;;;;;;;14.13;6.07;;;0.10;99.90;;;;;;4987957;28;20045;-65
2023/01/18 09:15:37;;;;;;;16.17;6.22;;;0.20;99.90;;;;;;4974223;28;20117;-65
2023/01/18 09:18:05;;;;;;;7.50;4.63;;;0.20;99.90;;;;;;4970711;28;20046;-65
2023/01/18 09:20:34;;;;;;;20.13;5.22;;;0.30;99.90;;;;;;4977267;28;20090;-65
2023/01/18 09:23:04;;;;;;;9.55;5.57;;;0.30;99.90;;;;;;4974028;28;20050;-64
2023/01/18 09:25:29;;;;;;;13.73;6.55;;;0.40;99.90;;;;;;4968489;28;20109;-65
2023/01/18 09:27:55;;;;;;;12.30;5.55;;;0.40;99.90;;;;;;4974275;28;20074;-65
2023/01/18 09:30:20;;;;;;;17.58;5.95;;;0.50;99.90;;;;;;4969462;28;20043;-65
2023/01/18 09:32:46;;;;;;;13.80;7.30;;;0.50;99.90;;;;;;4970022;28;20038;-65
2023/01/18 09:35:16;;;;;;;18.70;6.30;;;0.60;99.90;;;;;;4975646;28;20600;-65
2023/01/18 09:37:44;;;;;;;19.95;7.70;;;0.60;99.90;;;;;;4978611;28;20043;-65
2023/01/18 09:40:18;;;;;;;17.75;7.35;;;0.80;99.90;;;;;;4970289;28;20046;-65
2023/01/18 09:42:46;;;;;;;12.25;6.32;;;0.80;99.90;;;;;;4974135;28;20504;-65
2023/01/18 09:45:43;;;;;;;13.85;6.07;;;0.80;99.90;;;;;;4974812;28;20058;-65
2023/01/18 09:48:22;;;;;;;14.60;6.43;;;0.90;99.90;;;;;;4963685;28;20521;-65
2023/01/18 09:50:48;;;;;;;12.88;4.95;;;0.90;99.90;;;;;;4967501;28;20057;-65
2023/01/18 09:53:46;;;;;;;14.80;7.57;;;1.00;99.90;;;;;;4986125;28;20042;-65
2023/01/18 09:56:24;;;;;;;11.55;4.50;;;1.00;99.90;;;;;;4937255;28;20081;-65
2023/01/18 09:59:19;;;;;;;14.82;7.18;;;1.10;99.90;;;;;;4985080;28;20463;-64
2023/01/18 10:01:46;;;;;;;9.88;6.13;;;1.10;99.90;;;;;;4987544;28;20085;-65
2023/01/18 10:04:31;;;;;;;10.15;5.85;;;1.10;99.90;;;;;;4970004;28;20093;-65
2023/01/18 10:07:17;;;;;;;11.80;6.22;;;1.20;99.90;;;;;;4978140;28;20089;-65
2023/01/18 10:09:53;;;;;;;8.55;5.45;;;1.30;99.90;;;;;;4987506;28;20100;-65
2023/01/18 10:12:39;;;;;;;20.45;9.02;;;1.30;99.90;;;;;;4987238;28;20398;-65
2023/01/18 10:15:19;;;;;;;8.07;4.97;;;1.30;99.90;;;;;;4987558;28;20038;-65
2023/01/18 10:17:50;;;;;;;11.93;6.45;;;1.40;99.90;;;;;;4987494;28;20129;-65
2023/01/18 10:20:35;;;;;;;10.15;5.35;;;1.60;99.90;;;;;;4966381;28;20054;-65
2023/01/18 10:23:19;;;;;;;10.77;5.60;;;1.50;99.90;;;;;;4986556;28;20054;-65
2023/01/18 10:26:15;;;;;;;10.93;6.22;;;1.60;99.90;;;;;;4969320;28;20038;-65
2023/01/18 10:28:47;;;;;;;14.80;5.90;;;1.60;99.90;;;;;;4976935;28;20042;-65
2023/01/18 10:31:28;;;;;;;17.35;6.72;;;1.60;99.90;;;;;;4987620;28;20038;-65
2023/01/18 10:33:57;;;;;;;9.40;6.50;;;1.70;99.90;;;;;;4986457;28;20054;-65
2023/01/18 10:36:46;;;;;;;8.20;5.28;;;1.80;99.90;;;;;;4987262;28;20045;-65
2023/01/18 10:39:38;;;;;;;9.40;5.07;;;1.80;99.90;;;;;;4952771;28;20129;-65
2023/01/18 10:42:17;;;;;;;10.50;5.57;;;1.80;99.90;;;;;;4963566;28;20463;-65
2023/01/18 10:44:44;;;;;;;16.55;6.10;;;1.90;99.90;;;;;;4970167;28;20106;-65
2023/01/18 10:47:10;;;;;;;14.48;6.25;;;2.00;99.90;;;;;;4986073;28;20069;-65
2023/01/18 10:49:42;;;;;;;6.47;4.05;;;2.00;99.90;;;;;;4987828;28;20038;-65
2023/01/18 10:52:26;;;;;;;18.08;7.22;;;2.10;99.90;;;;;;4986616;28;20042;-65
2023/01/18 10:55:00;;;;;;;15.10;6.07;;;2.10;99.90;;;;;;4986179;28;20426;-65
2023/01/18 10:57:47;;;;;;;9.98;5.68;;;2.20;99.90;;;;;;4987017;28;20093;-64
2023/01/18 11:00:29;;;;;;;7.80;5.10;;;2.30;99.90;;;;;;4985636;28;20101;-65
2023/01/18 11:02:57;;;;;;;6.97;4.03;;;2.30;99.90;;;;;;4986797;28;20070;-64
2023/01/18 11:05:28;;;;;;;10.05;5.38;;;2.40;99.90;;;;;;4986872;28;20045;-64
2023/01/18 11:08:13;;;;;;;16.75;7.13;;;2.40;99.90;;;;;;4985635;28;20073;-65
2023/01/18 11:10:41;;;;;;;3.38;2.05;;;2.50;99.90;;;;;;4969084;28;20077;-65
2023/01/18 11:13:25;;;;;;;11.90;6.45;;;2.50;99.90;;;;;;4985668;28;20046;-65
2023/01/18 11:16:21;;;;;;;12.77;6.03;;;2.60;99.90;;;;;;4984975;28;20196;-64
2023/01/18 11:19:02;;;;;;;11.95;4.60;;;2.70;99.90;;;;;;4975165;28;20051;-65
2023/01/18 11:21:39;;;;;;;8.18;4.22;;;2.80;99.90;;;;;;4979504;28;20461;-65
2023/01/18 11:24:11;;;;;;;17.08;6.10;;;2.80;99.90;;;;;;4984133;28;20046;-65
2023/01/18 11:26:51;;;;;;;12.73;6.15;;;2.90;99.90;;;;;;4968194;28;20042;-65
2023/01/18 11:29:20;;;;;;;13.00;6.30;;;2.90;99.90;;;;;;4985156;28;20046;-64
2023/01/18 11:31:48;;;;;;;10.48;5.90;;;2.90;99.90;;;;;;4967176;28;20054;-64
2023/01/18 11:34:42;;;;;;;12.05;5.10;;;2.90;99.90;;;;;;4982174;28;20089;-64
2023/01/18 11:37:26;;;;;;;10.43;5.93;;;3.00;99.90;;;;;;4960060;28;20062;-64
2023/01/18 11:39:52;;;;;;;7.97;4.05;;;3.00;99.90;;;;;;4983351;28;20042;-64
2023/01/18 11:42:21;;;;;;;8.15;3.47;;;3.10;99.90;;;;;;4981764;28;20211;-63
2023/01/18 11:44:59;;;;;;;8.25;5.55;;;3.10;99.90;;;;;;4984287;28;20046;-63
2023/01/18 11:47:41;;;;;;;12.68;5.38;;;3.10;99.90;;;;;;4971668;28;20614;-63
2023/01/18 11:50:37;;;;;;;17.38;6.28;;;3.10;99.90;;;;;;4991216;28;20050;-63
2023/01/18 11:53:33;;;;;;;9.02;5.13;;;3.20;99.90;;;;;;4977208;28;20059;-63
2023/01/18 11:56:17;;;;;;;8.93;4.97;;;3.20;99.90;;;;;;4992153;28;20053;-63
2023/01/18 11:58:44;;;;;;;15.40;6.28;;;3.20;99.90;;;;;;4992724;28;20103;-63
2023/01/18 12:01:20;;;;;;;9.52;6.35;;;3.30;99.90;;;;;;4973775;28;20046;-63
2023/01/18 12:04:16;;;;;;;8.77;5.63;;;3.30;99.90;;;;;;4992352;28;20096;-63
2023/01/18 12:07:19;;;;;;;12.43;5.22;;;3.30;99.90;;;;;;4979710;28;20046;-63
2023/01/18 12:09:56;;;;;;;10.82;5.03;;;3.40;99.90;;;;;;4987609;28;20130;-63
2023/01/18 12:12:52;;;;;;;8.38;4.22;;;3.40;99.90;;;;;;4985140;28;20537;-63
2023/01/18 12:15:40;;;;;;;13.68;6.13;;;3.50;99.90;;;;;;4985077;28;20096;-63
2023/01/18 12:18:25;;;;;;;20.02;6.72;;;3.50;99.90;;;;;;4980026;28;20151;-63
2023/01/18 12:20:52;;;;;;;6.97;4.88;;;3.50;99.90;;;;;;4991443;28;20054;-63
2023/01/18 12:23:44;;;;;;;12.23;5.45;;;3.60;99.90;;;;;;4991979;28;20046;-63
2023/01/18 12:26:35;;;;;;;7.45;4.65;;;3.60;99.90;;;;;;4973410;28;20034;-63
2023/01/18 12:29:23;;;;;;;11.85;5.15;;;3.70;99.90;;;;;;4974654;28;20061;-63
2023/01/18 12:32:03;;;;;;;5.72;3.53;;;3.70;99.90;;;;;;4986178;28;20053;-63
2023/01/18 12:34:43;;;;;;;8.38;5.35;;;3.70;99.90;;;;;;4973557;28;20049;-63
2023/01/18 12:37:25;;;;;;;8.60;3.17;;;3.80;99.90;;;;;;4992111;28;20042;-63
2023/01/18 12:40:06;;;;;;;8.35;5.25;;;3.80;99.90;;;;;;4991294;28;20053;-63
2023/01/18 12:42:45;;;;;;;7.45;5.05;;;3.90;99.90;;;;;;4991794;28;20480;-63
2023/01/18 12:45:33;;;;;;;8.77;4.28;;;3.90;99.90;;;;;;4991210;28;20031;-63
2023/01/18 12:48:20;;;;;;;10.52;4.38;;;4.00;99.90;;;;;;4971024;28;20058;-63
2023/01/18 12:50:48;;;;;;;13.98;4.60;;;4.00;99.90;;;;;;4988532;28;20046;-63
2023/01/18 12:53:21;;;;;;;4.32;2.80;;;4.00;99.90;;;;;;4987656;28;20046;-63
2023/01/18 12:55:52;;;;;;;6.95;4.85;;;4.10;99.90;;;;;;4971166;28;20138;-63
2023/01/18 12:58:22;;;;;;;5.07;2.85;;;4.10;99.90;;;;;;4984309;28;20420;-63
2023/01/18 13:01:03;;;;;;;9.32;2.78;;;4.20;99.90;;;;;;4979279;28;20045;-63
2023/01/18 13:03:36;;;;;;;8.43;4.25;;;4.20;99.90;;;;;;4982395;28;20338;-63
2023/01/18 13:06:02;;;;;;;7.45;3.00;;;4.30;99.90;;;;;;4984296;28;20046;-63
2023/01/18 13:08:48;;;;;;;11.65;4.20;;;4.30;99.90;;;;;;4987946;28;20105;-63
2023/01/18 13:11:28;;;;;;;7.55;3.30;;;4.30;99.90;;;;;;4974838;28;20201;-63
2023/01/18 13:14:36;;;;;;;2.35;2.15;;;4.50;99.90;;;;;;4988296;28;20046;-63
2023/01/18 13:17:18;;;;;;;9.55;3.58;;;4.50;99.90;;;;;;4986943;28;20404;-62
2023/01/18 13:19:57;;;;;;;7.00;2.58;;;4.50;99.90;;;;;;4974923;28;20042;-63
2023/01/18 13:22:39;;;;;;;6.93;2.65;;;4.60;99.90;;;;;;4984964;28;20058;-63
2023/01/18 13:25:25;;;;;;;2.38;1.77;;;4.60;99.90;;;;;;4971060;28;20089;-63
2023/01/18 13:28:04;;;;;;;5.90;2.03;;;4.60;99.90;;;;;;4988173;28;20081;-63
2023/01/18 13:34:19;;;;;;;4.05;2.10;;;4.60;99.90;;;;;;4992799;23;20061;31
2023/01/18 13:36:45;;;;;;;5.90;2.55;;;4.60;99.90;;;;;;4922372;29;20522;-63
2023/01/18 13:39:17;;;;;;;14.52;3.00;;;4.60;99.90;;;;;;4913008;29;20059;-63
2023/01/18 13:42:21;;;;;;;7.93;3.03;;;4.60;99.90;;;;;;4930552;29;20147;-63
2023/01/18 13:44:49;;;;;;;5.97;3.65;;;4.40;99.90;;;;;;4915564;29;20486;-64